Аэропорт: Курумоч. Самара

ICAO: UWWW

METAR:
2018/09/23 11:00
UWWW 231100Z 20006MPS 170V240 CAVOK 24/12 Q1017 R15/CLRD60 NOSIG RMK QFE751/1002
METAR:
2018/09/23 09:25
TAF UWWW 230800Z 2309/2409 18004G09MPS 9999 SCT030 TX25/2311Z TN12/2401Z 
      TEMPO 2309/2402 16011MPS 
      TEMPO 2402/2409 21013MPS 3100 -SHRA BKN011CB